AFL7432 UUEE-UUEW
Flight info
| Callsign | AFL7432 |
|---|---|
| Flight time | N/A |
| Altitude | 5000 |
| Route | VECTORS/24C GIGUN DCT ASLEK DCT BUPOS DCT ORSIF DCT MEZER DCT NALFI DCT RAMZA DCT UKABE DCT FIDOT DCT RORUK DCT UUWW DCT LIKNI DCT GIGUN DCT NUZOR DCT PUFIK DCT ROLAZ DCT RIZNO DCT BEGEZ DCT LUNZA DCT EE048 DCT EE049 DCT EE050 DCT EE051 DCT TAFAZ DCT KEZVU |
| Aircraft | B77W/H-SDE1E2E3FGHIJ2J3J4J5M1RWXY/LB1D1 |
Departure
| Time | 2026-04-30 17:43 |
|---|---|
| Airport | Sheremetyevo International Airport (UUEE) |
Arrival
| Time | N/A |
|---|---|
| Airport | UUEW |
| Time | Latitude | Longitude | Altitude | Speed | Heading |
|---|---|---|---|---|---|
| 2026-04-30 17:39 | 55.56008 | 37.12315 | 1493 ft | 131 kts | 66° |
| 2026-04-30 17:41 | 55.58790 | 37.24536 | 667 ft | 128 kts | 68° |
| 2026-04-30 17:42 | 55.59497 | 37.27615 | 1735 ft | 149 kts | 65° |
| 2026-04-30 17:42 | 55.60732 | 37.33236 | 3019 ft | 219 kts | 67° |
| 2026-04-30 17:43 | 55.61841 | 37.38389 | 2994 ft | 226 kts | 70° |
| 2026-04-30 17:44 | 55.59727 | 37.45014 | 4560 ft | 239 kts | 167° |
| 2026-04-30 17:44 | 55.55677 | 37.41158 | 5009 ft | 237 kts | 244° |
| 2026-04-30 17:46 | 55.52120 | 37.28034 | 4988 ft | 238 kts | 241° |
| 2026-04-30 17:47 | 55.47846 | 37.17673 | 4997 ft | 264 kts | 235° |
| 2026-04-30 17:48 | 55.43832 | 37.07805 | 4979 ft | 224 kts | 236° |
| 2026-04-30 17:48 | 55.41142 | 37.01140 | 4996 ft | 221 kts | 236° |
| 2026-04-30 17:49 | 55.36168 | 36.99932 | 5005 ft | 224 kts | 120° |
| 2026-04-30 17:50 | 55.38410 | 37.08323 | 5002 ft | 209 kts | 25° |
| 2026-04-30 17:51 | 55.42720 | 37.09623 | 5010 ft | 213 kts | 5° |
| 2026-04-30 17:52 | 55.47314 | 37.10158 | 5018 ft | 235 kts | 343° |
| 2026-04-30 17:53 | 55.46208 | 37.00745 | 4158 ft | 221 kts | 188° |
| 2026-04-30 17:54 | 55.40149 | 36.99946 | 3038 ft | 217 kts | 162° |
| 2026-04-30 17:55 | 55.39917 | 37.07875 | 3025 ft | 205 kts | 21° |
| 2026-04-30 17:56 | 55.44823 | 37.12029 | 2808 ft | 186 kts | 36° |
| 2026-04-30 17:57 | 55.47469 | 37.15780 | 2451 ft | 146 kts | 36° |
| 2026-04-30 17:58 | 55.49923 | 37.18749 | 2135 ft | 143 kts | 26° |
| 2026-04-30 17:59 | 55.53523 | 37.21810 | 1941 ft | 146 kts | 24° |
| 2026-04-30 18:00 | 55.57315 | 37.24732 | 1050 ft | 150 kts | 22° |
| 2026-04-30 18:00 | 55.60144 | 37.26914 | 852 ft | 170 kts | 24° |
| 2026-04-30 18:01 | 55.61917 | 37.29249 | 2014 ft | 172 kts | 68° |
| 2026-04-30 18:02 | 55.59767 | 37.34134 | 2348 ft | 212 kts | 160° |
| 2026-04-30 18:02 | 55.55227 | 37.34354 | 2931 ft | 232 kts | 192° |
| 2026-04-30 18:03 | 55.50497 | 37.32694 | 2995 ft | 229 kts | 192° |
| 2026-04-30 18:04 | 55.46664 | 37.29003 | 2783 ft | 206 kts | 256° |
| 2026-04-30 18:05 | 55.49572 | 37.22990 | 1941 ft | 165 kts | 344° |
| 2026-04-30 18:06 | 55.53397 | 37.21968 | 1690 ft | 154 kts | 6° |
| 2026-04-30 18:07 | 55.57317 | 37.24740 | 965 ft | 146 kts | 23° |
| 2026-04-30 18:08 | 55.60046 | 37.26816 | 723 ft | 154 kts | 22° |
| 2026-04-30 18:09 | 55.60018 | 37.33765 | 3475 ft | 211 kts | 153° |
| 2026-04-30 18:10 | 55.54344 | 37.31835 | 4594 ft | 217 kts | 201° |
| 2026-04-30 18:11 | 55.49488 | 37.26281 | 5002 ft | 214 kts | 263° |
| 2026-04-30 18:11 | 55.50142 | 37.17725 | 4996 ft | 249 kts | 281° |
| 2026-04-30 18:12 | 55.51743 | 37.09362 | 5012 ft | 244 kts | 325° |
| 2026-04-30 18:13 | 55.54948 | 37.07271 | 4998 ft | 249 kts | 341° |
| 2026-04-30 18:13 | 55.59919 | 37.04182 | 5004 ft | 258 kts | 340° |
| 2026-04-30 18:14 | 55.63267 | 37.01996 | 4997 ft | 256 kts | 339° |
| 2026-04-30 18:15 | 55.68246 | 36.98673 | 5004 ft | 254 kts | 339° |